sensor_id;sensor_type;location;lat;lon;timestamp;P1;durP1;ratioP1;P2;durP2;ratioP2
34242;SDS011;20504;43.214;27.920;2023-09-19T00:02:22;20.48;;;8.10;;
34242;SDS011;20504;43.214;27.920;2023-09-19T00:04:47;11.83;;;8.33;;
34242;SDS011;20504;43.214;27.920;2023-09-19T00:07:13;13.07;;;8.40;;
34242;SDS011;20504;43.214;27.920;2023-09-19T00:09:42;14.82;;;8.68;;
34242;SDS011;20504;43.214;27.920;2023-09-19T00:12:09;14.40;;;8.07;;
34242;SDS011;20504;43.214;27.920;2023-09-19T00:14:35;10.43;;;7.33;;
34242;SDS011;20504;43.214;27.920;2023-09-19T00:17:21;11.85;;;7.68;;
34242;SDS011;20504;43.214;27.920;2023-09-19T00:19:47;13.18;;;8.02;;
34242;SDS011;20504;43.214;27.920;2023-09-19T00:22:16;12.90;;;7.00;;
34242;SDS011;20504;43.214;27.920;2023-09-19T00:24:44;9.70;;;7.15;;
34242;SDS011;20504;43.214;27.920;2023-09-19T00:27:11;11.02;;;6.97;;
34242;SDS011;20504;43.214;27.920;2023-09-19T00:32:02;12.50;;;7.53;;
34242;SDS011;20504;43.214;27.920;2023-09-19T00:34:30;12.15;;;8.27;;
34242;SDS011;20504;43.214;27.920;2023-09-19T00:36:59;12.30;;;8.27;;
34242;SDS011;20504;43.214;27.920;2023-09-19T00:39:24;17.33;;;8.80;;
34242;SDS011;20504;43.214;27.920;2023-09-19T00:41:50;18.88;;;9.30;;
34242;SDS011;20504;43.214;27.920;2023-09-19T00:44:16;15.17;;;9.37;;
34242;SDS011;20504;43.214;27.920;2023-09-19T00:46:46;23.40;;;9.60;;
34242;SDS011;20504;43.214;27.920;2023-09-19T00:49:28;17.95;;;9.65;;
34242;SDS011;20504;43.214;27.920;2023-09-19T00:52:03;17.38;;;8.60;;
34242;SDS011;20504;43.214;27.920;2023-09-19T00:54:45;16.27;;;9.50;;
34242;SDS011;20504;43.214;27.920;2023-09-19T00:57:12;17.98;;;9.40;;
34242;SDS011;20504;43.214;27.920;2023-09-19T00:59:37;18.97;;;10.00;;
34242;SDS011;20504;43.214;27.920;2023-09-19T01:02:03;14.43;;;8.93;;
34242;SDS011;20504;43.214;27.920;2023-09-19T01:06:54;22.33;;;10.93;;
34242;SDS011;20504;43.214;27.920;2023-09-19T01:09:20;25.03;;;9.90;;
34242;SDS011;20504;43.214;27.920;2023-09-19T01:12:14;20.35;;;9.95;;
34242;SDS011;20504;43.214;27.920;2023-09-19T01:17:25;21.65;;;10.50;;
34242;SDS011;20504;43.214;27.920;2023-09-19T01:28:30;21.90;;;10.63;;
34242;SDS011;20504;43.214;27.920;2023-09-19T01:31:02;22.45;;;10.27;;
34242;SDS011;20504;43.214;27.920;2023-09-19T01:33:28;21.63;;;10.50;;
34242;SDS011;20504;43.214;27.920;2023-09-19T01:38:47;18.73;;;10.57;;
34242;SDS011;20504;43.214;27.920;2023-09-19T01:41:13;23.75;;;9.77;;
34242;SDS011;20504;43.214;27.920;2023-09-19T01:43:47;21.85;;;11.10;;
34242;SDS011;20504;43.214;27.920;2023-09-19T01:46:21;19.02;;;10.88;;
34242;SDS011;20504;43.214;27.920;2023-09-19T01:54:11;15.52;;;10.27;;
34242;SDS011;20504;43.214;27.920;2023-09-19T01:56:47;22.75;;;11.43;;
34242;SDS011;20504;43.214;27.920;2023-09-19T01:59:17;23.20;;;11.65;;
34242;SDS011;20504;43.214;27.920;2023-09-19T02:02:01;17.88;;;11.50;;
34242;SDS011;20504;43.214;27.920;2023-09-19T02:06:58;17.45;;;10.45;;
34242;SDS011;20504;43.214;27.920;2023-09-19T02:09:23;18.13;;;10.67;;
34242;SDS011;20504;43.214;27.920;2023-09-19T02:11:49;18.60;;;11.27;;
34242;SDS011;20504;43.214;27.920;2023-09-19T02:14:14;15.53;;;10.80;;
34242;SDS011;20504;43.214;27.920;2023-09-19T02:16:40;16.40;;;11.00;;
34242;SDS011;20504;43.214;27.920;2023-09-19T02:19:05;19.20;;;9.77;;
34242;SDS011;20504;43.214;27.920;2023-09-19T02:23:56;15.65;;;9.88;;
34242;SDS011;20504;43.214;27.920;2023-09-19T02:26:21;16.40;;;10.20;;
34242;SDS011;20504;43.214;27.920;2023-09-19T02:28:49;15.30;;;10.07;;
34242;SDS011;20504;43.214;27.920;2023-09-19T02:31:15;17.80;;;10.57;;
34242;SDS011;20504;43.214;27.920;2023-09-19T02:33:41;22.35;;;11.50;;
34242;SDS011;20504;43.214;27.920;2023-09-19T02:36:07;22.20;;;11.13;;
34242;SDS011;20504;43.214;27.920;2023-09-19T02:38:33;17.42;;;10.60;;
34242;SDS011;20504;43.214;27.920;2023-09-19T02:40:59;20.53;;;10.17;;
34242;SDS011;20504;43.214;27.920;2023-09-19T02:43:24;20.77;;;11.40;;
34242;SDS011;20504;43.214;27.920;2023-09-19T02:45:50;18.67;;;11.55;;
34242;SDS011;20504;43.214;27.920;2023-09-19T02:48:18;20.38;;;12.50;;
34242;SDS011;20504;43.214;27.920;2023-09-19T02:50:54;15.43;;;11.40;;
34242;SDS011;20504;43.214;27.920;2023-09-19T02:53:20;20.08;;;11.60;;
34242;SDS011;20504;43.214;27.920;2023-09-19T02:55:49;22.23;;;11.73;;
34242;SDS011;20504;43.214;27.920;2023-09-19T02:58:15;18.33;;;12.15;;
34242;SDS011;20504;43.214;27.920;2023-09-19T03:00:42;19.13;;;12.50;;
34242;SDS011;20504;43.214;27.920;2023-09-19T03:03:11;17.50;;;11.73;;
34242;SDS011;20504;43.214;27.920;2023-09-19T03:05:38;18.58;;;11.85;;
34242;SDS011;20504;43.214;27.920;2023-09-19T03:10:38;18.38;;;12.55;;
34242;SDS011;20504;43.214;27.920;2023-09-19T03:13:04;23.67;;;11.97;;
34242;SDS011;20504;43.214;27.920;2023-09-19T03:18:00;20.92;;;13.75;;
34242;SDS011;20504;43.214;27.920;2023-09-19T03:20:25;21.47;;;12.83;;
34242;SDS011;20504;43.214;27.920;2023-09-19T03:22:52;22.35;;;13.05;;
34242;SDS011;20504;43.214;27.920;2023-09-19T03:25:22;20.20;;;12.68;;
34242;SDS011;20504;43.214;27.920;2023-09-19T03:27:48;19.17;;;13.15;;
34242;SDS011;20504;43.214;27.920;2023-09-19T03:30:14;24.00;;;13.40;;
34242;SDS011;20504;43.214;27.920;2023-09-19T03:32:57;21.77;;;13.60;;
34242;SDS011;20504;43.214;27.920;2023-09-19T03:35:27;22.60;;;14.43;;
34242;SDS011;20504;43.214;27.920;2023-09-19T03:37:54;23.58;;;14.30;;
34242;SDS011;20504;43.214;27.920;2023-09-19T03:40:19;22.13;;;14.90;;
34242;SDS011;20504;43.214;27.920;2023-09-19T03:42:47;26.10;;;14.90;;
34242;SDS011;20504;43.214;27.920;2023-09-19T03:45:13;27.53;;;13.90;;
34242;SDS011;20504;43.214;27.920;2023-09-19T03:47:41;26.73;;;15.32;;
34242;SDS011;20504;43.214;27.920;2023-09-19T03:50:09;25.92;;;15.20;;
34242;SDS011;20504;43.214;27.920;2023-09-19T03:52:45;27.45;;;14.95;;
34242;SDS011;20504;43.214;27.920;2023-09-19T03:55:22;29.73;;;15.25;;
34242;SDS011;20504;43.214;27.920;2023-09-19T03:57:50;22.77;;;15.80;;
34242;SDS011;20504;43.214;27.920;2023-09-19T04:00:18;29.55;;;15.45;;
34242;SDS011;20504;43.214;27.920;2023-09-19T04:02:47;30.70;;;17.48;;
34242;SDS011;20504;43.214;27.920;2023-09-19T04:05:13;28.90;;;17.45;;
34242;SDS011;20504;43.214;27.920;2023-09-19T04:07:44;25.55;;;16.75;;
34242;SDS011;20504;43.214;27.920;2023-09-19T04:10:10;29.17;;;15.73;;
34242;SDS011;20504;43.214;27.920;2023-09-19T04:12:37;29.42;;;16.88;;
34242;SDS011;20504;43.214;27.920;2023-09-19T04:15:04;30.23;;;17.50;;
34242;SDS011;20504;43.214;27.920;2023-09-19T04:17:33;38.33;;;19.30;;
34242;SDS011;20504;43.214;27.920;2023-09-19T04:19:58;34.07;;;18.73;;
34242;SDS011;20504;43.214;27.920;2023-09-19T04:22:26;28.40;;;17.48;;
34242;SDS011;20504;43.214;27.920;2023-09-19T04:24:52;35.45;;;18.10;;
34242;SDS011;20504;43.214;27.920;2023-09-19T04:27:17;33.27;;;18.60;;
34242;SDS011;20504;43.214;27.920;2023-09-19T04:29:44;30.20;;;18.20;;
34242;SDS011;20504;43.214;27.920;2023-09-19T04:32:10;31.63;;;18.50;;
34242;SDS011;20504;43.214;27.920;2023-09-19T04:34:35;37.50;;;16.27;;
34242;SDS011;20504;43.214;27.920;2023-09-19T04:37:02;25.40;;;16.23;;
34242;SDS011;20504;43.214;27.920;2023-09-19T04:39:28;23.70;;;13.55;;
34242;SDS011;20504;43.214;27.920;2023-09-19T04:41:54;25.93;;;14.67;;
34242;SDS011;20504;43.214;27.920;2023-09-19T04:44:23;29.45;;;15.35;;
34242;SDS011;20504;43.214;27.920;2023-09-19T04:46:52;28.77;;;14.95;;
34242;SDS011;20504;43.214;27.920;2023-09-19T04:49:17;24.83;;;14.93;;
34242;SDS011;20504;43.214;27.920;2023-09-19T04:51:45;32.25;;;15.90;;
34242;SDS011;20504;43.214;27.920;2023-09-19T04:54:12;35.55;;;17.33;;
34242;SDS011;20504;43.214;27.920;2023-09-19T04:56:39;34.97;;;15.53;;
34242;SDS011;20504;43.214;27.920;2023-09-19T04:59:06;47.67;;;17.25;;
34242;SDS011;20504;43.214;27.920;2023-09-19T05:01:32;30.80;;;15.13;;
34242;SDS011;20504;43.214;27.920;2023-09-19T05:03:58;28.23;;;16.43;;
34242;SDS011;20504;43.214;27.920;2023-09-19T05:06:30;37.00;;;17.27;;
34242;SDS011;20504;43.214;27.920;2023-09-19T05:08:56;47.73;;;19.03;;
34242;SDS011;20504;43.214;27.920;2023-09-19T05:11:30;35.72;;;20.00;;
34242;SDS011;20504;43.214;27.920;2023-09-19T05:13:55;39.17;;;19.57;;
34242;SDS011;20504;43.214;27.920;2023-09-19T05:16:21;41.50;;;18.90;;
34242;SDS011;20504;43.214;27.920;2023-09-19T05:18:47;28.63;;;18.37;;
34242;SDS011;20504;43.214;27.920;2023-09-19T05:21:12;44.53;;;19.20;;
34242;SDS011;20504;43.214;27.920;2023-09-19T05:23:42;32.75;;;19.45;;
34242;SDS011;20504;43.214;27.920;2023-09-19T05:26:08;33.95;;;18.80;;
34242;SDS011;20504;43.214;27.920;2023-09-19T05:28:35;46.60;;;20.75;;
34242;SDS011;20504;43.214;27.920;2023-09-19T05:31:11;34.13;;;19.42;;
34242;SDS011;20504;43.214;27.920;2023-09-19T05:33:37;40.83;;;22.45;;
34242;SDS011;20504;43.214;27.920;2023-09-19T05:36:03;43.53;;;20.20;;
34242;SDS011;20504;43.214;27.920;2023-09-19T05:38:30;36.30;;;20.33;;
34242;SDS011;20504;43.214;27.920;2023-09-19T05:40:56;45.72;;;20.48;;
34242;SDS011;20504;43.214;27.920;2023-09-19T05:43:21;36.70;;;22.13;;
34242;SDS011;20504;43.214;27.920;2023-09-19T05:45:47;44.60;;;22.37;;
34242;SDS011;20504;43.214;27.920;2023-09-19T05:48:14;41.40;;;24.73;;
34242;SDS011;20504;43.214;27.920;2023-09-19T05:50:43;39.95;;;22.90;;
34242;SDS011;20504;43.214;27.920;2023-09-19T05:53:11;38.50;;;22.23;;
34242;SDS011;20504;43.214;27.920;2023-09-19T05:55:39;39.00;;;23.50;;
34242;SDS011;20504;43.214;27.920;2023-09-19T05:58:05;42.40;;;21.00;;
34242;SDS011;20504;43.214;27.920;2023-09-19T06:00:31;38.47;;;21.73;;
34242;SDS011;20504;43.214;27.920;2023-09-19T06:02:57;34.53;;;21.80;;
34242;SDS011;20504;43.214;27.920;2023-09-19T06:05:24;45.90;;;21.80;;
34242;SDS011;20504;43.214;27.920;2023-09-19T06:07:52;32.75;;;21.83;;
34242;SDS011;20504;43.214;27.920;2023-09-19T06:10:18;34.85;;;22.27;;
34242;SDS011;20504;43.214;27.920;2023-09-19T06:12:45;40.53;;;21.83;;
34242;SDS011;20504;43.214;27.920;2023-09-19T06:15:12;32.83;;;21.23;;
34242;SDS011;20504;43.214;27.920;2023-09-19T06:17:51;29.45;;;19.35;;
34242;SDS011;20504;43.214;27.920;2023-09-19T06:20:24;40.13;;;20.30;;
34242;SDS011;20504;43.214;27.920;2023-09-19T06:22:51;30.98;;;18.25;;
34242;SDS011;20504;43.214;27.920;2023-09-19T06:25:19;29.83;;;18.45;;
34242;SDS011;20504;43.214;27.920;2023-09-19T06:27:45;28.85;;;18.08;;
34242;SDS011;20504;43.214;27.920;2023-09-19T06:30:11;31.77;;;17.50;;
34242;SDS011;20504;43.214;27.920;2023-09-19T06:32:38;40.22;;;25.92;;
34242;SDS011;20504;43.214;27.920;2023-09-19T06:35:04;33.17;;;22.57;;
34242;SDS011;20504;43.214;27.920;2023-09-19T06:37:33;35.17;;;24.08;;
34242;SDS011;20504;43.214;27.920;2023-09-19T06:40:03;32.03;;;16.50;;
34242;SDS011;20504;43.214;27.920;2023-09-19T06:42:35;32.70;;;17.00;;
34242;SDS011;20504;43.214;27.920;2023-09-19T06:45:02;32.60;;;16.85;;
34242;SDS011;20504;43.214;27.920;2023-09-19T06:47:29;23.02;;;15.75;;
34242;SDS011;20504;43.214;27.920;2023-09-19T06:49:55;27.93;;;14.40;;
34242;SDS011;20504;43.214;27.920;2023-09-19T06:52:20;27.70;;;15.20;;
34242;SDS011;20504;43.214;27.920;2023-09-19T06:54:48;26.48;;;15.02;;
34242;SDS011;20504;43.214;27.920;2023-09-19T06:57:16;24.75;;;15.85;;
34242;SDS011;20504;43.214;27.920;2023-09-19T07:02:07;25.45;;;15.23;;
34242;SDS011;20504;43.214;27.920;2023-09-19T07:04:33;23.17;;;14.60;;
34242;SDS011;20504;43.214;27.920;2023-09-19T07:06:59;29.53;;;13.67;;
34242;SDS011;20504;43.214;27.920;2023-09-19T07:12:16;37.33;;;15.35;;
34242;SDS011;20504;43.214;27.920;2023-09-19T07:14:42;19.27;;;11.93;;
34242;SDS011;20504;43.214;27.920;2023-09-19T07:17:08;24.43;;;11.97;;
34242;SDS011;20504;43.214;27.920;2023-09-19T07:19:36;21.08;;;11.38;;
34242;SDS011;20504;43.214;27.920;2023-09-19T07:22:20;18.17;;;10.98;;
34242;SDS011;20504;43.214;27.920;2023-09-19T07:24:48;19.35;;;9.77;;
34242;SDS011;20504;43.214;27.920;2023-09-19T07:27:14;23.07;;;10.57;;
34242;SDS011;20504;43.214;27.920;2023-09-19T07:29:42;12.15;;;6.95;;
34242;SDS011;20504;43.214;27.920;2023-09-19T07:32:09;9.95;;;6.53;;
34242;SDS011;20504;43.214;27.920;2023-09-19T07:35:09;11.15;;;6.30;;
34242;SDS011;20504;43.214;27.920;2023-09-19T07:37:35;9.93;;;6.30;;
34242;SDS011;20504;43.214;27.920;2023-09-19T07:40:04;12.07;;;6.38;;
34242;SDS011;20504;43.214;27.920;2023-09-19T07:42:34;12.98;;;6.45;;
34242;SDS011;20504;43.214;27.920;2023-09-19T07:45:02;10.80;;;6.05;;
34242;SDS011;20504;43.214;27.920;2023-09-19T07:47:28;14.55;;;7.07;;
34242;SDS011;20504;43.214;27.920;2023-09-19T07:49:56;10.52;;;6.13;;
34242;SDS011;20504;43.214;27.920;2023-09-19T07:52:22;6.90;;;5.10;;
34242;SDS011;20504;43.214;27.920;2023-09-19T07:54:48;13.55;;;8.57;;
34242;SDS011;20504;43.214;27.920;2023-09-19T07:59:40;13.27;;;6.22;;
34242;SDS011;20504;43.214;27.920;2023-09-19T08:02:09;6.63;;;5.30;;
34242;SDS011;20504;43.214;27.920;2023-09-19T08:04:44;6.18;;;5.57;;
34242;SDS011;20504;43.214;27.920;2023-09-19T08:07:14;6.93;;;5.90;;
34242;SDS011;20504;43.214;27.920;2023-09-19T08:09:41;7.78;;;5.80;;
34242;SDS011;20504;43.214;27.920;2023-09-19T08:12:22;9.18;;;5.63;;
34242;SDS011;20504;43.214;27.920;2023-09-19T08:14:58;11.00;;;5.80;;
34242;SDS011;20504;43.214;27.920;2023-09-19T08:17:24;10.18;;;5.93;;
34242;SDS011;20504;43.214;27.920;2023-09-19T08:19:50;12.43;;;6.25;;
34242;SDS011;20504;43.214;27.920;2023-09-19T08:22:18;7.68;;;5.20;;
34242;SDS011;20504;43.214;27.920;2023-09-19T08:24:48;5.80;;;4.43;;
34242;SDS011;20504;43.214;27.920;2023-09-19T08:29:43;9.73;;;5.25;;
34242;SDS011;20504;43.214;27.920;2023-09-19T08:32:10;5.90;;;5.32;;
34242;SDS011;20504;43.214;27.920;2023-09-19T08:34:36;11.43;;;5.50;;
34242;SDS011;20504;43.214;27.920;2023-09-19T08:37:06;7.43;;;5.30;;
34242;SDS011;20504;43.214;27.920;2023-09-19T08:39:36;7.20;;;5.47;;
34242;SDS011;20504;43.214;27.920;2023-09-19T08:42:17;10.48;;;5.05;;
34242;SDS011;20504;43.214;27.920;2023-09-19T08:44:48;9.57;;;5.55;;
34242;SDS011;20504;43.214;27.920;2023-09-19T08:47:16;5.50;;;4.77;;
34242;SDS011;20504;43.214;27.920;2023-09-19T08:50:04;9.00;;;5.85;;
34242;SDS011;20504;43.214;27.920;2023-09-19T08:52:42;10.55;;;4.72;;
34242;SDS011;20504;43.214;27.920;2023-09-19T08:55:12;7.28;;;4.82;;
34242;SDS011;20504;43.214;27.920;2023-09-19T08:57:48;10.07;;;6.63;;
34242;SDS011;20504;43.214;27.920;2023-09-19T09:00:15;6.63;;;4.93;;
34242;SDS011;20504;43.214;27.920;2023-09-19T09:02:47;10.93;;;8.02;;
34242;SDS011;20504;43.214;27.920;2023-09-19T09:05:16;9.98;;;5.07;;
34242;SDS011;20504;43.214;27.920;2023-09-19T09:07:51;9.00;;;5.03;;
34242;SDS011;20504;43.214;27.920;2023-09-19T09:10:21;8.13;;;4.70;;
34242;SDS011;20504;43.214;27.920;2023-09-19T09:12:55;12.50;;;5.38;;
34242;SDS011;20504;43.214;27.920;2023-09-19T09:15:21;7.68;;;4.82;;
34242;SDS011;20504;43.214;27.920;2023-09-19T09:17:50;10.20;;;4.85;;
34242;SDS011;20504;43.214;27.920;2023-09-19T09:20:19;8.25;;;4.85;;
34242;SDS011;20504;43.214;27.920;2023-09-19T09:22:56;10.68;;;4.78;;
34242;SDS011;20504;43.214;27.920;2023-09-19T09:28:44;8.15;;;5.18;;
34242;SDS011;20504;43.214;27.920;2023-09-19T09:31:23;8.18;;;5.00;;
34242;SDS011;20504;43.214;27.920;2023-09-19T09:33:54;6.45;;;5.25;;
34242;SDS011;20504;43.214;27.920;2023-09-19T09:39:04;8.10;;;4.95;;
34242;SDS011;20504;43.214;27.920;2023-09-19T09:41:50;9.65;;;5.10;;
34242;SDS011;20504;43.214;27.920;2023-09-19T09:44:18;11.52;;;4.80;;
34242;SDS011;20504;43.214;27.920;2023-09-19T09:46:58;9.50;;;6.90;;
34242;SDS011;20504;43.214;27.920;2023-09-19T09:56:58;10.63;;;5.00;;
34242;SDS011;20504;43.214;27.920;2023-09-19T10:00:13;9.43;;;4.72;;
34242;SDS011;20504;43.214;27.920;2023-09-19T10:10:10;9.52;;;4.88;;
34242;SDS011;20504;43.214;27.920;2023-09-19T10:16:45;6.68;;;4.43;;
34242;SDS011;20504;43.214;27.920;2023-09-19T10:19:30;18.60;;;13.80;;
34242;SDS011;20504;43.214;27.920;2023-09-19T12:13:52;10.00;;;4.93;;
34242;SDS011;20504;43.214;27.920;2023-09-19T12:16:43;8.57;;;4.68;;
34242;SDS011;20504;43.214;27.920;2023-09-19T12:19:39;8.05;;;4.93;;
34242;SDS011;20504;43.214;27.920;2023-09-19T12:22:28;9.23;;;4.85;;
34242;SDS011;20504;43.214;27.920;2023-09-19T12:25:13;9.40;;;4.75;;
34242;SDS011;20504;43.214;27.920;2023-09-19T12:28:41;5.65;;;4.53;;
34242;SDS011;20504;43.214;27.920;2023-09-19T12:37:26;10.32;;;7.72;;
34242;SDS011;20504;43.214;27.920;2023-09-19T12:40:22;12.02;;;4.97;;
34242;SDS011;20504;43.214;27.920;2023-09-19T12:42:56;8.05;;;4.60;;
34242;SDS011;20504;43.214;27.920;2023-09-19T12:45:40;10.60;;;4.85;;
34242;SDS011;20504;43.214;27.920;2023-09-19T12:48:26;7.05;;;4.30;;
34242;SDS011;20504;43.214;27.920;2023-09-19T12:51:09;8.20;;;4.97;;
34242;SDS011;20504;43.214;27.920;2023-09-19T12:54:08;7.07;;;5.28;;
34242;SDS011;20504;43.214;27.920;2023-09-19T13:02:36;12.20;;;6.35;;
34242;SDS011;20504;43.214;27.920;2023-09-19T13:08:37;11.95;;;4.65;;
34242;SDS011;20504;43.214;27.920;2023-09-19T13:17:56;8.45;;;4.47;;
34242;SDS011;20504;43.214;27.920;2023-09-19T13:23:42;9.43;;;4.60;;
34242;SDS011;20504;43.214;27.920;2023-09-19T13:26:19;8.40;;;4.53;;
34242;SDS011;20504;43.214;27.920;2023-09-19T13:28:49;6.97;;;4.38;;
34242;SDS011;20504;43.214;27.920;2023-09-19T13:31:24;11.38;;;4.68;;
34242;SDS011;20504;43.214;27.920;2023-09-19T13:34:20;10.38;;;4.70;;
34242;SDS011;20504;43.214;27.920;2023-09-19T13:37:13;8.00;;;4.22;;
34242;SDS011;20504;43.214;27.920;2023-09-19T13:39:42;10.32;;;4.05;;
34242;SDS011;20504;43.214;27.920;2023-09-19T13:42:13;10.38;;;4.60;;
34242;SDS011;20504;43.214;27.920;2023-09-19T13:44:45;8.30;;;4.30;;
34242;SDS011;20504;43.214;27.920;2023-09-19T13:47:11;8.48;;;4.03;;
34242;SDS011;20504;43.214;27.920;2023-09-19T13:49:42;6.28;;;3.85;;
34242;SDS011;20504;43.214;27.920;2023-09-19T13:52:19;7.90;;;4.45;;
34242;SDS011;20504;43.214;27.920;2023-09-19T13:55:01;6.53;;;4.15;;
34242;SDS011;20504;43.214;27.920;2023-09-19T13:57:31;9.23;;;4.95;;
34242;SDS011;20504;43.214;27.920;2023-09-19T14:05:46;8.88;;;4.63;;
34242;SDS011;20504;43.214;27.920;2023-09-19T14:08:22;8.63;;;4.25;;
34242;SDS011;20504;43.214;27.920;2023-09-19T14:10:57;12.40;;;4.22;;
34242;SDS011;20504;43.214;27.920;2023-09-19T14:16:06;8.57;;;4.22;;
34242;SDS011;20504;43.214;27.920;2023-09-19T14:21:18;10.52;;;4.75;;
34242;SDS011;20504;43.214;27.920;2023-09-19T14:23:51;8.30;;;5.00;;
34242;SDS011;20504;43.214;27.920;2023-09-19T14:26:21;10.75;;;5.18;;
34242;SDS011;20504;43.214;27.920;2023-09-19T14:29:00;12.20;;;4.32;;
34242;SDS011;20504;43.214;27.920;2023-09-19T14:31:39;7.82;;;4.53;;
34242;SDS011;20504;43.214;27.920;2023-09-19T14:34:07;12.82;;;5.22;;
34242;SDS011;20504;43.214;27.920;2023-09-19T14:39:59;6.05;;;4.78;;
34242;SDS011;20504;43.214;27.920;2023-09-19T14:42:40;7.13;;;4.53;;
34242;SDS011;20504;43.214;27.920;2023-09-19T14:51:08;9.32;;;4.90;;
34242;SDS011;20504;43.214;27.920;2023-09-19T14:54:16;10.15;;;5.22;;
34242;SDS011;20504;43.214;27.920;2023-09-19T14:56:55;13.52;;;4.72;;
34242;SDS011;20504;43.214;27.920;2023-09-19T14:59:32;11.63;;;5.30;;
34242;SDS011;20504;43.214;27.920;2023-09-19T15:02:45;6.18;;;4.90;;
34242;SDS011;20504;43.214;27.920;2023-09-19T15:05:59;9.20;;;5.00;;
34242;SDS011;20504;43.214;27.920;2023-09-19T15:08:32;15.25;;;5.43;;
34242;SDS011;20504;43.214;27.920;2023-09-19T15:11:14;7.32;;;5.07;;
34242;SDS011;20504;43.214;27.920;2023-09-19T15:31:04;10.10;;;6.50;;
34242;SDS011;20504;43.214;27.920;2023-09-19T15:33:37;12.05;;;6.20;;
34242;SDS011;20504;43.214;27.920;2023-09-19T15:36:06;8.52;;;5.35;;
34242;SDS011;20504;43.214;27.920;2023-09-19T15:38:56;11.65;;;6.43;;
34242;SDS011;20504;43.214;27.920;2023-09-19T15:41:41;11.80;;;5.50;;
34242;SDS011;20504;43.214;27.920;2023-09-19T15:44:13;18.08;;;7.57;;
34242;SDS011;20504;43.214;27.920;2023-09-19T15:47:10;11.82;;;6.22;;
34242;SDS011;20504;43.214;27.920;2023-09-19T15:50:15;13.55;;;6.53;;
34242;SDS011;20504;43.214;27.920;2023-09-19T15:55:23;11.60;;;6.55;;
34242;SDS011;20504;43.214;27.920;2023-09-19T15:58:08;10.68;;;5.93;;
34242;SDS011;20504;43.214;27.920;2023-09-19T16:00:52;14.95;;;6.47;;
34242;SDS011;20504;43.214;27.920;2023-09-19T16:03:23;7.67;;;5.67;;
34242;SDS011;20504;43.214;27.920;2023-09-19T16:05:55;9.55;;;5.95;;
34242;SDS011;20504;43.214;27.920;2023-09-19T16:08:28;10.30;;;6.07;;
34242;SDS011;20504;43.214;27.920;2023-09-19T16:11:00;7.63;;;5.35;;
34242;SDS011;20504;43.214;27.920;2023-09-19T16:13:28;10.43;;;5.78;;
34242;SDS011;20504;43.214;27.920;2023-09-19T16:15:57;9.82;;;5.63;;
34242;SDS011;20504;43.214;27.920;2023-09-19T16:18:24;11.20;;;5.75;;
34242;SDS011;20504;43.214;27.920;2023-09-19T16:20:49;11.20;;;5.73;;
34242;SDS011;20504;43.214;27.920;2023-09-19T16:23:25;11.15;;;6.07;;
34242;SDS011;20504;43.214;27.920;2023-09-19T16:26:04;11.43;;;5.78;;
34242;SDS011;20504;43.214;27.920;2023-09-19T16:28:31;8.18;;;5.90;;
34242;SDS011;20504;43.214;27.920;2023-09-19T16:30:59;8.32;;;5.80;;
34242;SDS011;20504;43.214;27.920;2023-09-19T16:33:57;11.68;;;6.70;;
34242;SDS011;20504;43.214;27.920;2023-09-19T16:36:26;8.65;;;6.10;;
34242;SDS011;20504;43.214;27.920;2023-09-19T16:41:24;9.77;;;5.60;;
34242;SDS011;20504;43.214;27.920;2023-09-19T16:46:52;9.77;;;5.25;;
34242;SDS011;20504;43.214;27.920;2023-09-19T16:49:26;11.38;;;6.32;;
34242;SDS011;20504;43.214;27.920;2023-09-19T16:51:54;10.60;;;6.15;;
34242;SDS011;20504;43.214;27.920;2023-09-19T16:54:38;11.18;;;6.53;;
34242;SDS011;20504;43.214;27.920;2023-09-19T16:57:16;13.27;;;5.90;;
34242;SDS011;20504;43.214;27.920;2023-09-19T16:59:49;8.10;;;5.53;;
34242;SDS011;20504;43.214;27.920;2023-09-19T17:02:16;10.30;;;5.97;;
34242;SDS011;20504;43.214;27.920;2023-09-19T17:04:43;9.65;;;5.15;;
34242;SDS011;20504;43.214;27.920;2023-09-19T17:07:08;9.83;;;5.67;;
34242;SDS011;20504;43.214;27.920;2023-09-19T17:09:36;9.25;;;5.97;;
34242;SDS011;20504;43.214;27.920;2023-09-19T17:12:13;12.73;;;6.17;;
34242;SDS011;20504;43.214;27.920;2023-09-19T17:14:44;6.50;;;5.47;;
34242;SDS011;20504;43.214;27.920;2023-09-19T17:17:09;10.73;;;5.43;;
34242;SDS011;20504;43.214;27.920;2023-09-19T17:19:38;15.55;;;6.72;;
34242;SDS011;20504;43.214;27.920;2023-09-19T17:22:05;9.13;;;6.20;;
34242;SDS011;20504;43.214;27.920;2023-09-19T17:24:36;9.25;;;5.82;;
34242;SDS011;20504;43.214;27.920;2023-09-19T17:27:03;11.07;;;6.68;;
34242;SDS011;20504;43.214;27.920;2023-09-19T17:29:31;13.55;;;6.75;;
34242;SDS011;20504;43.214;27.920;2023-09-19T17:32:09;14.88;;;8.57;;
34242;SDS011;20504;43.214;27.920;2023-09-19T17:34:36;11.65;;;6.57;;
34242;SDS011;20504;43.214;27.920;2023-09-19T17:37:03;8.80;;;6.53;;
34242;SDS011;20504;43.214;27.920;2023-09-19T17:39:28;12.37;;;6.80;;
34242;SDS011;20504;43.214;27.920;2023-09-19T17:41:58;8.75;;;6.05;;
34242;SDS011;20504;43.214;27.920;2023-09-19T17:44:40;9.93;;;6.15;;
34242;SDS011;20504;43.214;27.920;2023-09-19T17:47:06;9.68;;;6.30;;
34242;SDS011;20504;43.214;27.920;2023-09-19T17:49:33;10.60;;;6.22;;
34242;SDS011;20504;43.214;27.920;2023-09-19T17:52:03;10.77;;;6.05;;
34242;SDS011;20504;43.214;27.920;2023-09-19T18:11:52;9.30;;;6.10;;
34242;SDS011;20504;43.214;27.920;2023-09-19T18:14:36;8.88;;;6.68;;
34242;SDS011;20504;43.214;27.920;2023-09-19T18:17:50;14.95;;;7.03;;
34242;SDS011;20504;43.214;27.920;2023-09-19T18:20:50;8.98;;;6.97;;
34242;SDS011;20504;43.214;27.920;2023-09-19T18:23:16;26.23;;;6.18;;
34242;SDS011;20504;43.214;27.920;2023-09-19T18:25:48;9.85;;;5.90;;
34242;SDS011;20504;43.214;27.920;2023-09-19T18:28:53;7.97;;;5.68;;
34242;SDS011;20504;43.214;27.920;2023-09-19T18:31:34;11.02;;;6.05;;
34242;SDS011;20504;43.214;27.920;2023-09-19T18:37:00;13.07;;;6.95;;
34242;SDS011;20504;43.214;27.920;2023-09-19T18:39:30;15.13;;;7.85;;
34242;SDS011;20504;43.214;27.920;2023-09-19T18:42:07;12.20;;;7.22;;
34242;SDS011;20504;43.214;27.920;2023-09-19T18:44:44;29.52;;;14.25;;
34242;SDS011;20504;43.214;27.920;2023-09-19T18:47:12;17.23;;;9.63;;
34242;SDS011;20504;43.214;27.920;2023-09-19T18:52:16;16.45;;;7.43;;
34242;SDS011;20504;43.214;27.920;2023-09-19T18:55:31;11.95;;;7.05;;
34242;SDS011;20504;43.214;27.920;2023-09-19T18:59:27;16.10;;;6.65;;
34242;SDS011;20504;43.214;27.920;2023-09-19T19:02:14;11.63;;;6.50;;
34242;SDS011;20504;43.214;27.920;2023-09-19T19:05:43;15.63;;;6.45;;
34242;SDS011;20504;43.214;27.920;2023-09-19T19:11:58;12.95;;;7.05;;
34242;SDS011;20504;43.214;27.920;2023-09-19T19:14:36;14.68;;;6.32;;
34242;SDS011;20504;43.214;27.920;2023-09-19T19:17:34;16.58;;;6.22;;
34242;SDS011;20504;43.214;27.920;2023-09-19T19:20:34;10.02;;;7.25;;
34242;SDS011;20504;43.214;27.920;2023-09-19T19:23:00;11.75;;;6.57;;
34242;SDS011;20504;43.214;27.920;2023-09-19T19:25:27;10.33;;;6.63;;
34242;SDS011;20504;43.214;27.920;2023-09-19T19:27:59;12.13;;;6.50;;
34242;SDS011;20504;43.214;27.920;2023-09-19T19:31:06;11.02;;;6.10;;
34242;SDS011;20504;43.214;27.920;2023-09-19T19:33:52;11.43;;;6.10;;